createdAt,value
2018-08-12T00:02:10.967Z,100681.00
2018-08-12T00:04:38.877Z,100677.00
2018-08-12T00:07:06.600Z,100675.00
2018-08-12T00:09:34.429Z,100678.00
2018-08-12T00:12:02.317Z,100679.00
2018-08-12T00:14:30.112Z,100679.00
2018-08-12T00:16:57.936Z,100675.00
2018-08-12T00:19:25.739Z,100681.00
2018-08-12T00:21:53.563Z,100682.00
2018-08-12T00:24:21.421Z,100679.00
2018-08-12T00:26:49.344Z,100678.00
2018-08-12T00:29:17.204Z,100672.00
2018-08-12T00:31:45.020Z,100671.00
2018-08-12T00:34:12.854Z,100666.00
2018-08-12T00:36:40.643Z,100670.00
2018-08-12T00:39:11.268Z,100673.00
2018-08-12T00:41:39.093Z,100668.00
2018-08-12T00:44:07.191Z,100656.00
2018-08-12T00:46:35.221Z,100660.00
2018-08-12T00:49:03.244Z,100655.00
2018-08-12T00:51:31.699Z,100659.00
2018-08-12T00:53:59.409Z,100656.00
2018-08-12T00:56:27.577Z,100655.00
2018-08-12T00:58:55.391Z,100654.00
2018-08-12T01:01:23.232Z,100649.00
2018-08-12T01:03:51.099Z,100652.00
2018-08-12T01:06:18.975Z,100658.00
2018-08-12T01:08:46.811Z,100648.00
2018-08-12T01:11:14.583Z,100660.00
2018-08-12T01:13:42.417Z,100651.00
2018-08-12T01:16:10.245Z,100643.00
2018-08-12T01:18:38.143Z,100646.00
2018-08-12T01:21:06.015Z,100653.00
2018-08-12T01:26:16.594Z,100649.00
2018-08-12T01:28:44.135Z,100647.00
2018-08-12T01:31:11.675Z,100645.00
2018-08-12T01:33:39.204Z,100644.00
2018-08-12T01:36:06.739Z,100638.00
2018-08-12T01:38:34.288Z,100641.00
2018-08-12T01:41:01.822Z,100641.00
2018-08-12T01:43:29.342Z,100643.00
2018-08-12T01:45:56.858Z,100634.00
2018-08-12T01:48:24.387Z,100638.00
2018-08-12T01:50:51.914Z,100633.00
2018-08-12T01:53:19.444Z,100641.00
2018-08-12T01:55:46.960Z,100648.00
2018-08-12T01:58:14.468Z,100635.00
2018-08-12T02:00:41.974Z,100630.00
2018-08-12T02:03:09.471Z,100637.00
2018-08-12T02:05:36.978Z,100637.00
2018-08-12T02:08:04.478Z,100639.00
2018-08-12T02:10:31.998Z,100637.00
2018-08-12T02:12:59.506Z,100634.00
2018-08-12T02:15:27.007Z,100627.00
2018-08-12T02:17:54.498Z,100629.00
2018-08-12T02:20:21.990Z,100624.00
2018-08-12T02:22:49.478Z,100620.00
2018-08-12T02:25:16.982Z,100629.00
2018-08-12T02:27:44.474Z,100622.00
2018-08-12T02:30:12.678Z,100631.00
2018-08-12T02:32:40.957Z,100633.00
2018-08-12T02:35:08.922Z,100627.00
2018-08-12T02:37:36.448Z,100627.00
2018-08-12T02:40:05.808Z,100622.00
2018-08-12T02:42:33.379Z,100622.00
2018-08-12T02:45:00.935Z,100620.00
2018-08-12T02:47:28.881Z,100618.00
2018-08-12T02:49:56.415Z,100607.00
2018-08-12T02:52:23.947Z,100611.00
2018-08-12T02:54:51.482Z,100606.00
2018-08-12T02:57:19.016Z,100597.00
2018-08-12T02:59:46.567Z,100590.00
2018-08-12T03:02:14.108Z,100594.00
2018-08-12T03:04:41.641Z,100588.00
2018-08-12T03:07:09.155Z,100591.00
2018-08-12T03:09:36.690Z,100590.00
2018-08-12T03:12:04.508Z,100590.00
2018-08-12T03:14:32.043Z,100592.00
2018-08-12T03:16:59.576Z,100594.00
2018-08-12T03:19:27.099Z,100581.00
2018-08-12T03:21:54.642Z,100579.00
2018-08-12T03:24:22.167Z,100580.00
2018-08-12T03:26:49.722Z,100577.00
2018-08-12T03:29:17.254Z,100574.00
2018-08-12T03:31:44.791Z,100570.00
2018-08-12T03:34:12.365Z,100579.00
2018-08-12T03:36:39.914Z,100561.00
2018-08-12T03:39:09.274Z,100574.00
2018-08-12T03:41:36.811Z,100563.00
2018-08-12T03:44:04.479Z,100570.00
2018-08-12T03:46:32.031Z,100560.00
2018-08-12T03:48:59.642Z,100567.00
2018-08-12T03:51:27.111Z,100570.00
2018-08-12T03:53:54.626Z,100573.00
2018-08-12T03:56:22.148Z,100571.00
2018-08-12T03:58:49.648Z,100573.00
2018-08-12T04:01:17.155Z,100567.00
2018-08-12T04:03:44.673Z,100573.00
2018-08-12T04:06:12.170Z,100566.00
2018-08-12T04:08:39.666Z,100566.00
2018-08-12T04:11:07.166Z,100567.00
2018-08-12T04:13:34.663Z,100569.00
2018-08-12T04:16:02.179Z,100563.00
2018-08-12T04:18:29.688Z,100569.00
2018-08-12T04:20:57.187Z,100565.00
2018-08-12T04:23:24.688Z,100562.00
2018-08-12T04:25:52.198Z,100566.00
2018-08-12T04:28:19.699Z,100565.00
2018-08-12T04:30:47.212Z,100565.00
2018-08-12T04:33:14.742Z,100566.00
2018-08-12T04:35:42.254Z,100565.00
2018-08-12T04:38:09.763Z,100568.00
2018-08-12T04:40:37.263Z,100563.00
2018-08-12T04:43:04.914Z,100559.00
2018-08-12T04:45:32.456Z,100553.00
2018-08-12T04:47:59.958Z,100560.00
2018-08-12T04:50:27.467Z,100561.00
2018-08-12T04:52:54.958Z,100564.00
2018-08-12T04:55:22.522Z,100555.00
2018-08-12T04:57:50.059Z,100560.00
2018-08-12T05:00:17.596Z,100560.00
2018-08-12T05:02:45.133Z,100552.00
2018-08-12T05:05:12.663Z,100556.00
2018-08-12T05:07:40.194Z,100562.00
2018-08-12T05:10:07.867Z,100561.00
2018-08-12T05:12:35.407Z,100547.00
2018-08-12T05:15:03.832Z,100551.00
2018-08-12T05:17:31.364Z,100560.00
2018-08-12T05:19:58.882Z,100559.00
2018-08-12T05:22:26.403Z,100557.00
2018-08-12T05:24:53.948Z,100544.00
2018-08-12T05:27:21.484Z,100548.00
2018-08-12T05:29:49.013Z,100534.00
2018-08-12T05:32:16.542Z,100536.00
2018-08-12T05:34:44.060Z,100541.00
2018-08-12T05:37:11.643Z,100534.00
2018-08-12T05:39:39.153Z,100542.00
2018-08-12T05:42:06.699Z,100544.00
2018-08-12T05:44:34.222Z,100544.00
2018-08-12T05:47:01.760Z,100553.00
2018-08-12T05:49:29.300Z,100551.00
2018-08-12T05:51:56.830Z,100560.00
2018-08-12T05:54:24.357Z,100558.00
2018-08-12T05:56:51.903Z,100557.00
2018-08-12T05:59:19.422Z,100548.00
2018-08-12T06:01:46.951Z,100543.00
2018-08-12T06:04:14.475Z,100557.00
2018-08-12T06:06:42.024Z,100536.00
2018-08-12T06:09:10.226Z,100537.00
2018-08-12T06:11:37.767Z,100537.00
2018-08-12T06:14:06.162Z,100538.00
2018-08-12T06:16:33.719Z,100533.00
2018-08-12T06:19:01.265Z,100532.00
2018-08-12T06:21:28.783Z,100534.00
2018-08-12T06:23:56.302Z,100535.00
2018-08-12T06:26:23.864Z,100525.00
2018-08-12T06:28:51.391Z,100531.00
2018-08-12T06:31:18.918Z,100519.00
2018-08-12T06:33:46.444Z,100526.00
2018-08-12T06:36:13.970Z,100527.00
2018-08-12T06:38:41.495Z,100534.00
2018-08-12T06:41:09.047Z,100533.00
2018-08-12T06:43:36.591Z,100522.00
2018-08-12T06:46:04.155Z,100517.00
2018-08-12T06:48:31.758Z,100520.00
2018-08-12T06:50:59.297Z,100523.00
2018-08-12T06:53:26.843Z,100523.00
2018-08-12T06:55:54.377Z,100520.00
2018-08-12T06:58:21.883Z,100510.00
2018-08-12T07:00:49.379Z,100516.00
2018-08-12T07:03:16.894Z,100512.00
2018-08-12T07:05:44.410Z,100503.00
2018-08-12T07:08:11.937Z,100503.00
2018-08-12T07:10:39.438Z,100504.00
2018-08-12T07:13:06.967Z,100494.00
2018-08-12T07:15:34.471Z,100492.00
2018-08-12T07:18:01.979Z,100492.00
2018-08-12T07:20:29.495Z,100493.00
2018-08-12T07:22:57.024Z,100488.00
2018-08-12T07:25:25.673Z,100493.00
2018-08-12T07:27:53.758Z,100477.00
2018-08-12T07:30:21.778Z,100474.00
2018-08-12T07:32:49.859Z,100452.00
2018-08-12T07:35:17.755Z,100478.00
2018-08-12T07:37:45.771Z,100479.00
2018-08-12T07:40:19.040Z,100471.00
2018-08-12T07:55:50.003Z,100483.00
2018-08-12T07:58:17.507Z,100471.00
2018-08-12T08:00:45.044Z,100473.00
2018-08-12T08:03:12.585Z,100473.00
2018-08-12T08:05:40.095Z,100474.00
2018-08-12T08:08:07.645Z,100476.00
2018-08-12T08:10:35.181Z,100471.00
2018-08-12T08:13:02.730Z,100471.00
2018-08-12T08:15:30.266Z,100475.00
2018-08-12T08:17:57.820Z,100466.00
2018-08-12T08:20:25.329Z,100469.00
2018-08-12T08:22:52.854Z,100467.00
2018-08-12T08:25:20.416Z,100466.00
2018-08-12T08:27:47.958Z,100465.00
2018-08-12T08:30:15.742Z,100460.00
2018-08-12T08:32:43.506Z,100461.00
2018-08-12T08:35:11.771Z,100460.00
2018-08-12T08:37:39.650Z,100454.00
2018-08-12T08:40:09.971Z,100458.00
2018-08-12T08:42:37.527Z,100460.00
2018-08-12T08:45:10.636Z,100454.00
2018-08-12T08:47:38.178Z,100460.00
2018-08-12T08:50:06.364Z,100455.00
2018-08-12T08:52:33.909Z,100453.00
2018-08-12T08:55:01.455Z,100449.00
2018-08-12T08:57:28.979Z,100446.00
2018-08-12T08:59:56.479Z,100442.00
2018-08-12T09:02:23.986Z,100443.00
2018-08-12T09:04:51.516Z,100439.00
2018-08-12T09:07:19.015Z,100441.00
2018-08-12T09:09:46.526Z,100442.00
2018-08-12T09:12:14.015Z,100432.00
2018-08-12T09:14:41.519Z,100425.00
2018-08-12T09:17:09.022Z,100429.00
2018-08-12T09:19:36.535Z,100426.00
2018-08-12T09:22:04.038Z,100426.00
2018-08-12T09:24:31.522Z,100414.00
2018-08-12T09:26:59.024Z,100416.00
2018-08-12T09:29:26.548Z,100405.00
2018-08-12T09:31:54.060Z,100408.00
2018-08-12T09:34:21.582Z,100412.00
2018-08-12T09:36:49.092Z,100413.00
2018-08-12T09:39:16.607Z,100398.00
2018-08-12T09:41:44.137Z,100393.00
2018-08-12T09:44:11.638Z,100395.00
2018-08-12T09:46:39.150Z,100394.00
2018-08-12T09:49:06.666Z,100393.00
2018-08-12T09:51:34.210Z,100392.00
2018-08-12T09:54:01.698Z,100391.00
2018-08-12T09:56:29.552Z,100394.00
2018-08-12T09:58:57.065Z,100391.00
2018-08-12T10:01:24.572Z,100385.00
2018-08-12T10:03:52.108Z,100381.00
2018-08-12T10:06:19.608Z,100377.00
2018-08-12T10:08:47.112Z,100374.00
2018-08-12T10:11:14.618Z,100361.00
2018-08-12T10:13:42.122Z,100371.00
2018-08-12T10:16:09.656Z,100360.00
2018-08-12T10:18:37.190Z,100351.00
2018-08-12T10:21:04.711Z,100362.00
2018-08-12T10:23:32.240Z,100346.00
2018-08-12T10:25:59.734Z,100342.00
2018-08-12T10:28:27.246Z,100335.00
2018-08-12T10:30:54.755Z,100331.00
2018-08-12T10:33:22.280Z,100335.00
2018-08-12T10:35:49.790Z,100335.00
2018-08-12T10:38:17.306Z,100332.00
2018-08-12T10:40:44.818Z,100335.00
2018-08-12T10:43:12.333Z,100324.00
2018-08-12T10:45:39.847Z,100315.00
2018-08-12T10:48:07.356Z,100312.00
2018-08-12T10:50:34.910Z,100307.00
2018-08-12T10:53:02.434Z,100304.00
2018-08-12T10:55:30.007Z,100303.00
2018-08-12T10:57:57.582Z,100312.00
2018-08-12T11:00:28.512Z,100297.00
2018-08-12T11:02:56.078Z,100299.00
2018-08-12T11:05:23.646Z,100299.00
2018-08-12T11:07:53.526Z,100297.00
2018-08-12T11:10:21.298Z,100297.00
2018-08-12T11:12:48.923Z,100293.00
2018-08-12T11:15:16.454Z,100288.00
2018-08-12T11:17:43.986Z,100284.00
2018-08-12T11:20:11.542Z,100278.00
2018-08-12T11:22:39.091Z,100271.00
2018-08-12T11:25:08.628Z,100268.00
2018-08-12T11:27:36.372Z,100273.00
2018-08-12T11:30:08.760Z,100266.00
2018-08-12T11:32:36.298Z,100263.00
2018-08-12T11:35:04.455Z,100268.00
2018-08-12T11:37:31.995Z,100263.00
2018-08-12T11:39:59.542Z,100274.00
2018-08-12T11:42:27.071Z,100271.00
2018-08-12T11:44:54.619Z,100261.00
2018-08-12T11:47:22.222Z,100254.00
2018-08-12T11:49:49.715Z,100255.00
2018-08-12T11:52:17.235Z,100254.00
2018-08-12T11:54:44.766Z,100249.00
2018-08-12T11:57:12.490Z,100242.00
2018-08-12T11:59:40.067Z,100246.00
2018-08-12T12:02:08.208Z,100240.00
2018-08-12T12:04:35.733Z,100238.00
2018-08-12T12:07:03.291Z,100232.00
2018-08-12T12:09:30.831Z,100229.00
2018-08-12T12:11:58.380Z,100226.00
2018-08-12T12:14:25.914Z,100231.00
2018-08-12T12:16:53.452Z,100232.00
2018-08-12T12:19:21.055Z,100218.00
2018-08-12T12:21:48.579Z,100218.00
2018-08-12T12:24:16.121Z,100216.00
2018-08-12T12:26:43.658Z,100213.00
2018-08-12T12:29:11.199Z,100206.00
2018-08-12T12:31:38.735Z,100212.00
2018-08-12T12:34:06.591Z,100196.00
2018-08-12T12:36:34.131Z,100199.00
2018-08-12T12:39:01.700Z,100204.00
2018-08-12T12:41:29.231Z,100185.00
2018-08-12T12:43:56.773Z,100196.00
2018-08-12T12:46:24.314Z,100184.00
2018-08-12T12:48:52.728Z,100185.00
2018-08-12T12:51:20.272Z,100181.00
2018-08-12T12:53:47.790Z,100176.00
2018-08-12T12:56:15.341Z,100171.00
2018-08-12T12:58:42.820Z,100169.00
2018-08-12T13:01:10.323Z,100166.00
2018-08-12T13:03:37.822Z,100165.00
2018-08-12T13:06:05.408Z,100166.00
2018-08-12T13:08:32.918Z,100160.00
2018-08-12T13:11:00.439Z,100151.00
2018-08-12T13:13:27.951Z,100150.00
2018-08-12T13:15:55.476Z,100142.00
2018-08-12T13:18:22.971Z,100152.00
2018-08-12T13:20:50.516Z,100139.00
2018-08-12T13:23:18.025Z,100131.00
2018-08-12T13:25:45.556Z,100132.00
2018-08-12T13:28:13.070Z,100126.00
2018-08-12T13:30:40.594Z,100128.00
2018-08-12T13:33:08.188Z,100125.00
2018-08-12T13:35:35.635Z,100127.00
2018-08-12T13:38:03.143Z,100125.00
2018-08-12T13:40:30.665Z,100111.00
2018-08-12T13:42:58.185Z,100109.00
2018-08-12T13:45:25.718Z,100106.00
2018-08-12T13:47:53.222Z,100096.00
2018-08-12T13:50:22.205Z,100099.00
2018-08-12T13:52:50.382Z,100087.00
2018-08-12T13:55:18.659Z,100094.00
2018-08-12T13:57:46.723Z,100094.00
2018-08-12T14:00:16.714Z,100084.00
2018-08-12T14:02:44.657Z,100081.00
2018-08-12T14:05:14.730Z,100091.00
2018-08-12T14:07:42.515Z,100085.00
2018-08-12T14:10:10.932Z,100077.00
2018-08-12T14:12:39.243Z,100066.00
2018-08-12T14:15:11.695Z,100078.00
2018-08-12T14:17:40.312Z,100061.00
2018-08-12T14:20:09.507Z,100055.00
2018-08-12T14:22:37.357Z,100042.00
2018-08-12T14:25:05.808Z,100044.00
2018-08-12T14:27:33.712Z,100045.00
2018-08-12T14:30:01.739Z,100036.00
2018-08-12T14:32:29.598Z,100027.00
2018-08-12T14:34:57.411Z,100022.00
2018-08-12T14:37:25.374Z,100022.00
2018-08-12T14:39:53.266Z,100015.00
2018-08-12T14:42:21.100Z,100008.00
2018-08-12T14:44:49.023Z,100019.00
2018-08-12T14:47:16.802Z,100007.00
2018-08-12T14:49:44.580Z,100013.00
2018-08-12T14:52:12.441Z,100003.00
2018-08-12T14:54:40.281Z,100006.00
2018-08-12T14:57:08.028Z,99999.00
2018-08-12T14:59:35.823Z,100008.00
2018-08-12T15:02:03.804Z,100004.00
2018-08-12T15:04:31.563Z,99996.00
2018-08-12T15:06:59.323Z,99995.00
2018-08-12T15:09:27.187Z,99981.00
2018-08-12T15:11:54.996Z,99979.00
2018-08-12T15:14:22.979Z,99980.00
2018-08-12T15:16:50.785Z,99973.00
2018-08-12T15:19:18.639Z,99971.00
2018-08-12T15:21:46.475Z,99968.00
2018-08-12T15:24:14.330Z,99973.00
2018-08-12T15:26:42.081Z,99966.00
2018-08-12T15:29:09.949Z,99961.00
2018-08-12T15:31:37.726Z,99960.00
2018-08-12T15:34:05.554Z,99962.00
2018-08-12T15:36:33.336Z,99960.00
2018-08-12T15:39:01.136Z,99960.00
2018-08-12T15:41:28.909Z,99965.00
2018-08-12T15:43:56.710Z,99955.00
2018-08-12T15:46:24.546Z,99948.00
2018-08-12T15:48:52.309Z,99947.00
2018-08-12T15:51:20.184Z,99942.00
2018-08-12T15:53:47.917Z,99936.00
2018-08-12T15:56:15.749Z,99937.00
2018-08-12T15:58:43.568Z,99933.00
2018-08-12T16:01:11.402Z,99938.00
2018-08-12T16:03:39.213Z,99934.00
2018-08-12T16:06:07.051Z,99935.00
2018-08-12T16:08:34.852Z,99929.00
2018-08-12T16:11:02.671Z,99923.00
2018-08-12T16:13:30.549Z,99921.00
2018-08-12T16:15:58.491Z,99924.00
2018-08-12T16:18:26.305Z,99909.00
2018-08-12T16:20:54.167Z,99913.00
2018-08-12T16:23:22.051Z,99909.00
2018-08-12T16:25:49.793Z,99905.00
2018-08-12T16:28:17.551Z,99900.00
2018-08-12T16:30:45.281Z,99899.00
2018-08-12T16:33:13.129Z,99892.00
2018-08-12T16:35:40.976Z,99893.00
2018-08-12T16:38:08.769Z,99889.00
2018-08-12T16:40:36.616Z,99882.00
2018-08-12T16:43:04.406Z,99878.00
2018-08-12T16:45:32.204Z,99884.00
2018-08-12T16:47:59.999Z,99876.00
2018-08-12T16:50:27.811Z,99879.00
2018-08-12T16:52:55.631Z,99872.00
2018-08-12T16:55:23.442Z,99866.00
2018-08-12T16:57:51.291Z,99857.00
2018-08-12T17:00:20.836Z,99866.00
2018-08-12T17:02:48.724Z,99861.00
2018-08-12T17:05:21.299Z,99861.00
2018-08-12T17:07:49.529Z,99870.00
2018-08-12T17:10:18.052Z,99858.00
2018-08-12T17:12:45.832Z,99855.00
2018-08-12T17:15:16.156Z,99848.00
2018-08-12T17:17:44.119Z,99854.00
2018-08-12T17:20:14.816Z,99850.00
2018-08-12T17:22:43.283Z,99843.00
2018-08-12T17:25:11.091Z,99841.00
2018-08-12T17:27:38.867Z,99838.00
2018-08-12T17:30:09.457Z,99834.00
2018-08-12T17:32:37.260Z,99833.00
2018-08-12T17:35:06.268Z,99832.00
2018-08-12T17:37:34.173Z,99836.00
2018-08-12T17:40:02.267Z,99828.00
2018-08-12T17:42:30.003Z,99825.00
2018-08-12T17:44:57.725Z,99821.00
2018-08-12T17:47:25.579Z,99824.00
2018-08-12T17:49:53.448Z,99834.00
2018-08-12T17:52:21.224Z,99829.00
2018-08-12T17:54:49.025Z,99831.00
2018-08-12T17:57:16.828Z,99818.00
2018-08-12T17:59:44.583Z,99825.00
2018-08-12T18:02:12.391Z,99821.00
2018-08-12T18:04:40.181Z,99819.00
2018-08-12T18:07:07.971Z,99806.00
2018-08-12T18:09:35.738Z,99809.00
2018-08-12T18:12:03.641Z,99807.00
2018-08-12T18:14:31.561Z,99819.00
2018-08-12T18:16:59.507Z,99810.00
2018-08-12T18:19:27.285Z,99806.00
2018-08-12T18:21:55.103Z,99806.00
2018-08-12T18:24:22.959Z,99810.00
2018-08-12T18:26:51.009Z,99803.00
2018-08-12T18:29:18.761Z,99810.00
2018-08-12T18:31:46.583Z,99810.00
2018-08-12T18:34:14.432Z,99807.00
2018-08-12T18:36:42.310Z,99807.00
2018-08-12T18:39:11.655Z,99801.00
2018-08-12T18:41:39.720Z,99804.00
2018-08-12T18:44:08.139Z,99810.00
2018-08-12T18:46:36.000Z,99809.00
2018-08-12T18:49:03.873Z,99803.00
2018-08-12T18:51:31.757Z,99800.00
2018-08-12T18:53:59.583Z,99806.00
2018-08-12T18:56:27.440Z,99791.00
2018-08-12T18:58:55.198Z,99797.00
2018-08-12T19:01:23.120Z,99798.00
2018-08-12T19:03:50.851Z,99792.00
2018-08-12T19:06:18.624Z,99798.00
2018-08-12T19:08:46.416Z,99796.00
2018-08-12T19:11:14.205Z,99788.00
2018-08-12T19:13:41.999Z,99785.00
2018-08-12T19:16:09.807Z,99791.00
2018-08-12T19:18:37.613Z,99784.00
2018-08-12T19:21:05.423Z,99786.00
2018-08-12T19:23:33.396Z,99792.00
2018-08-12T19:26:01.196Z,99782.00
2018-08-12T19:28:29.021Z,99785.00
2018-08-12T19:30:56.819Z,99786.00
2018-08-12T19:33:24.584Z,99776.00
2018-08-12T19:35:52.380Z,99778.00
2018-08-12T19:38:20.251Z,99771.00
2018-08-12T19:40:48.016Z,99770.00
2018-08-12T19:43:15.783Z,99767.00
2018-08-12T19:45:43.559Z,99768.00
2018-08-12T19:48:11.335Z,99760.00
2018-08-12T19:50:39.194Z,99763.00
2018-08-12T19:53:07.044Z,99757.00
2018-08-12T19:55:34.602Z,99758.00
2018-08-12T19:58:02.107Z,99753.00
2018-08-12T20:00:29.604Z,99764.00
2018-08-12T20:02:57.127Z,99757.00
2018-08-12T20:05:24.650Z,99752.00
2018-08-12T20:07:52.159Z,99750.00
2018-08-12T20:10:19.668Z,99757.00
2018-08-12T20:12:47.178Z,99756.00
2018-08-12T20:15:14.683Z,99760.00
2018-08-12T20:17:42.196Z,99761.00
2018-08-12T20:20:11.428Z,99755.00
2018-08-12T20:22:39.111Z,99754.00
2018-08-12T20:25:06.947Z,99755.00
2018-08-12T20:27:34.464Z,99762.00
2018-08-12T20:30:02.081Z,99761.00
2018-08-12T20:32:29.599Z,99752.00
2018-08-12T20:34:57.180Z,99765.00
2018-08-12T20:37:24.675Z,99762.00
2018-08-12T20:39:52.179Z,99758.00
2018-08-12T20:42:19.681Z,99763.00
2018-08-12T20:44:47.191Z,99754.00
2018-08-12T20:47:14.712Z,99759.00
2018-08-12T20:49:42.207Z,99750.00
2018-08-12T20:52:09.833Z,99745.00
2018-08-12T20:54:37.234Z,99751.00
2018-08-12T20:57:04.758Z,99745.00
2018-08-12T20:59:32.341Z,99747.00
2018-08-12T21:01:59.819Z,99754.00
2018-08-12T21:04:27.502Z,99748.00
2018-08-12T21:06:55.027Z,99753.00
2018-08-12T21:09:22.574Z,99747.00
2018-08-12T21:11:50.133Z,99740.00
2018-08-12T21:14:17.614Z,99737.00
2018-08-12T21:16:45.136Z,99744.00
2018-08-12T21:19:12.692Z,99739.00
2018-08-12T21:21:40.230Z,99739.00
2018-08-12T21:24:07.772Z,99735.00
2018-08-12T21:26:35.304Z,99730.00
2018-08-12T21:29:02.847Z,99723.00
2018-08-12T21:31:30.355Z,99718.00
2018-08-12T21:33:57.867Z,99723.00
2018-08-12T21:36:25.387Z,99724.00
2018-08-12T21:38:52.911Z,99720.00
2018-08-12T21:41:20.422Z,99713.00
2018-08-12T21:43:47.954Z,99712.00
2018-08-12T21:46:15.475Z,99706.00
2018-08-12T21:48:43.029Z,99705.00
2018-08-12T21:51:10.538Z,99702.00
2018-08-12T21:53:38.063Z,99701.00
2018-08-12T21:56:05.591Z,99702.00
2018-08-12T21:58:33.117Z,99701.00
2018-08-12T22:01:00.661Z,99700.00
2018-08-12T22:03:28.213Z,99704.00
2018-08-12T22:05:55.823Z,99701.00
2018-08-12T22:08:23.263Z,99705.00
2018-08-12T22:10:50.801Z,99699.00
2018-08-12T22:13:18.323Z,99692.00
2018-08-12T22:15:45.876Z,99702.00
2018-08-12T22:18:13.420Z,99686.00
2018-08-12T22:20:40.959Z,99687.00
2018-08-12T22:23:08.475Z,99695.00
2018-08-12T22:25:36.012Z,99688.00
2018-08-12T22:28:04.340Z,99688.00
2018-08-12T22:30:31.999Z,99692.00
2018-08-12T22:32:59.759Z,99688.00
2018-08-12T22:35:27.298Z,99686.00
2018-08-12T22:37:54.843Z,99686.00
2018-08-12T22:40:22.447Z,99680.00
2018-08-12T22:42:49.980Z,99682.00
2018-08-12T22:45:17.506Z,99685.00
2018-08-12T22:47:45.032Z,99681.00
2018-08-12T22:50:12.567Z,99680.00
2018-08-12T22:52:40.087Z,99676.00
2018-08-12T22:55:08.015Z,99671.00
2018-08-12T22:57:35.890Z,99671.00
2018-08-12T23:00:07.589Z,99662.00
2018-08-12T23:02:35.126Z,99660.00
2018-08-12T23:05:02.863Z,99666.00
2018-08-12T23:07:30.392Z,99664.00
2018-08-12T23:09:57.935Z,99657.00
2018-08-12T23:12:25.456Z,99662.00
2018-08-12T23:15:00.171Z,99656.00
2018-08-12T23:17:30.595Z,99659.00
2018-08-12T23:19:58.111Z,99659.00
2018-08-12T23:22:25.638Z,99649.00
2018-08-12T23:24:53.169Z,99655.00
2018-08-12T23:27:20.698Z,99668.00
2018-08-12T23:29:48.223Z,99651.00
2018-08-12T23:32:15.764Z,99649.00
2018-08-12T23:34:43.286Z,99644.00
2018-08-12T23:37:10.821Z,99644.00
2018-08-12T23:39:38.364Z,99643.00
2018-08-12T23:42:05.899Z,99650.00
2018-08-12T23:44:33.432Z,99638.00
2018-08-12T23:47:00.959Z,99631.00
2018-08-12T23:49:28.490Z,99634.00
2018-08-12T23:51:56.016Z,99632.00
2018-08-12T23:54:23.550Z,99634.00
2018-08-12T23:56:51.070Z,99624.00
2018-08-12T23:59:18.586Z,99622.00
